sensor_id;sensor_type;location;lat;lon;timestamp;P1;durP1;ratioP1;P2;durP2;ratioP2
39434;SDS011;66825;51.880;-0.518;2023-04-03T00:01:54;0.75;;;0.55;;
39434;SDS011;66825;51.880;-0.518;2023-04-03T00:04:20;0.75;;;0.63;;
39434;SDS011;66825;51.880;-0.518;2023-04-03T00:06:45;0.93;;;0.60;;
39434;SDS011;66825;51.880;-0.518;2023-04-03T00:09:11;1.38;;;0.80;;
39434;SDS011;66825;51.880;-0.518;2023-04-03T00:11:36;1.00;;;0.65;;
39434;SDS011;66825;51.880;-0.518;2023-04-03T00:14:02;0.95;;;0.70;;
39434;SDS011;66825;51.880;-0.518;2023-04-03T00:16:27;0.95;;;0.70;;
39434;SDS011;66825;51.880;-0.518;2023-04-03T00:18:53;1.10;;;0.70;;
39434;SDS011;66825;51.880;-0.518;2023-04-03T00:21:18;0.77;;;0.60;;
39434;SDS011;66825;51.880;-0.518;2023-04-03T00:23:44;1.52;;;0.63;;
39434;SDS011;66825;51.880;-0.518;2023-04-03T00:26:09;1.00;;;0.80;;
39434;SDS011;66825;51.880;-0.518;2023-04-03T00:28:35;1.40;;;0.80;;
39434;SDS011;66825;51.880;-0.518;2023-04-03T00:31:00;1.02;;;0.50;;
39434;SDS011;66825;51.880;-0.518;2023-04-03T00:33:25;1.40;;;0.80;;
39434;SDS011;66825;51.880;-0.518;2023-04-03T00:35:51;1.42;;;0.60;;
39434;SDS011;66825;51.880;-0.518;2023-04-03T00:38:17;1.35;;;0.82;;
39434;SDS011;66825;51.880;-0.518;2023-04-03T00:40:44;1.00;;;0.70;;
39434;SDS011;66825;51.880;-0.518;2023-04-03T00:43:15;1.00;;;0.70;;
39434;SDS011;66825;51.880;-0.518;2023-04-03T00:45:44;1.15;;;0.70;;
39434;SDS011;66825;51.880;-0.518;2023-04-03T00:48:13;1.40;;;0.90;;
39434;SDS011;66825;51.880;-0.518;2023-04-03T00:50:45;1.35;;;0.70;;
39434;SDS011;66825;51.880;-0.518;2023-04-03T00:53:12;1.42;;;0.75;;
39434;SDS011;66825;51.880;-0.518;2023-04-03T00:55:41;1.05;;;0.80;;
39434;SDS011;66825;51.880;-0.518;2023-04-03T00:58:08;1.35;;;0.80;;
39434;SDS011;66825;51.880;-0.518;2023-04-03T01:00:36;1.95;;;0.90;;
39434;SDS011;66825;51.880;-0.518;2023-04-03T01:03:05;0.93;;;0.57;;
39434;SDS011;66825;51.880;-0.518;2023-04-03T01:05:31;0.93;;;0.65;;
39434;SDS011;66825;51.880;-0.518;2023-04-03T01:07:57;1.05;;;0.80;;
39434;SDS011;66825;51.880;-0.518;2023-04-03T01:10:23;1.38;;;0.90;;
39434;SDS011;66825;51.880;-0.518;2023-04-03T01:12:50;0.90;;;0.70;;
39434;SDS011;66825;51.880;-0.518;2023-04-03T01:15:20;1.17;;;0.80;;
39434;SDS011;66825;51.880;-0.518;2023-04-03T01:17:52;1.73;;;0.90;;
39434;SDS011;66825;51.880;-0.518;2023-04-03T01:25:48;1.23;;;0.70;;
39434;SDS011;66825;51.880;-0.518;2023-04-03T01:28:25;1.13;;;0.80;;
39434;SDS011;66825;51.880;-0.518;2023-04-03T01:30:56;1.17;;;0.70;;
39434;SDS011;66825;51.880;-0.518;2023-04-03T01:33:40;1.55;;;0.90;;
39434;SDS011;66825;51.880;-0.518;2023-04-03T01:36:06;1.13;;;0.60;;
39434;SDS011;66825;51.880;-0.518;2023-04-03T01:38:32;1.63;;;0.80;;
39434;SDS011;66825;51.880;-0.518;2023-04-03T01:40:58;1.33;;;0.73;;
39434;SDS011;66825;51.880;-0.518;2023-04-03T01:43:23;1.35;;;0.80;;
39434;SDS011;66825;51.880;-0.518;2023-04-03T01:45:49;1.42;;;0.73;;
39434;SDS011;66825;51.880;-0.518;2023-04-03T01:48:15;1.10;;;0.70;;
39434;SDS011;66825;51.880;-0.518;2023-04-03T01:50:41;1.23;;;0.80;;
39434;SDS011;66825;51.880;-0.518;2023-04-03T01:53:06;1.40;;;0.88;;
39434;SDS011;66825;51.880;-0.518;2023-04-03T01:55:32;1.17;;;0.60;;
39434;SDS011;66825;51.880;-0.518;2023-04-03T01:57:58;1.40;;;0.80;;
39434;SDS011;66825;51.880;-0.518;2023-04-03T02:00:23;1.13;;;0.70;;
39434;SDS011;66825;51.880;-0.518;2023-04-03T02:02:49;1.63;;;0.90;;
39434;SDS011;66825;51.880;-0.518;2023-04-03T02:05:15;1.40;;;0.80;;
39434;SDS011;66825;51.880;-0.518;2023-04-03T02:07:40;1.73;;;0.80;;
39434;SDS011;66825;51.880;-0.518;2023-04-03T02:10:06;1.48;;;0.90;;
39434;SDS011;66825;51.880;-0.518;2023-04-03T02:12:32;0.98;;;0.70;;
39434;SDS011;66825;51.880;-0.518;2023-04-03T02:14:58;0.90;;;0.70;;
39434;SDS011;66825;51.880;-0.518;2023-04-03T02:17:23;1.25;;;0.77;;
39434;SDS011;66825;51.880;-0.518;2023-04-03T02:19:49;1.20;;;0.77;;
39434;SDS011;66825;51.880;-0.518;2023-04-03T02:22:15;1.10;;;0.82;;
39434;SDS011;66825;51.880;-0.518;2023-04-03T02:24:41;1.58;;;0.80;;
39434;SDS011;66825;51.880;-0.518;2023-04-03T02:27:06;0.95;;;0.70;;
39434;SDS011;66825;51.880;-0.518;2023-04-03T02:29:32;1.20;;;0.80;;
39434;SDS011;66825;51.880;-0.518;2023-04-03T02:31:58;0.85;;;0.60;;
39434;SDS011;66825;51.880;-0.518;2023-04-03T02:34:24;1.02;;;0.80;;
39434;SDS011;66825;51.880;-0.518;2023-04-03T02:36:50;1.10;;;0.70;;
39434;SDS011;66825;51.880;-0.518;2023-04-03T02:39:15;1.30;;;0.80;;
39434;SDS011;66825;51.880;-0.518;2023-04-03T02:41:41;1.15;;;0.73;;
39434;SDS011;66825;51.880;-0.518;2023-04-03T02:44:08;1.63;;;0.80;;
39434;SDS011;66825;51.880;-0.518;2023-04-03T02:46:35;1.08;;;0.70;;
39434;SDS011;66825;51.880;-0.518;2023-04-03T02:49:01;1.20;;;0.80;;
39434;SDS011;66825;51.880;-0.518;2023-04-03T02:51:27;1.08;;;0.63;;
39434;SDS011;66825;51.880;-0.518;2023-04-03T02:53:53;1.00;;;0.68;;
39434;SDS011;66825;51.880;-0.518;2023-04-03T02:56:19;1.27;;;0.80;;
39434;SDS011;66825;51.880;-0.518;2023-04-03T02:58:45;1.95;;;0.80;;
39434;SDS011;66825;51.880;-0.518;2023-04-03T03:01:11;1.30;;;0.75;;
39434;SDS011;66825;51.880;-0.518;2023-04-03T03:03:37;1.40;;;0.80;;
39434;SDS011;66825;51.880;-0.518;2023-04-03T03:06:07;1.20;;;0.77;;
39434;SDS011;66825;51.880;-0.518;2023-04-03T03:08:35;1.55;;;0.80;;
39434;SDS011;66825;51.880;-0.518;2023-04-03T03:11:01;1.13;;;0.68;;
39434;SDS011;66825;51.880;-0.518;2023-04-03T03:13:28;1.50;;;0.90;;
39434;SDS011;66825;51.880;-0.518;2023-04-03T03:15:54;1.75;;;0.80;;
39434;SDS011;66825;51.880;-0.518;2023-04-03T03:18:21;1.10;;;0.80;;
39434;SDS011;66825;51.880;-0.518;2023-04-03T03:20:50;1.50;;;0.73;;
39434;SDS011;66825;51.880;-0.518;2023-04-03T03:23:20;0.90;;;0.77;;
39434;SDS011;66825;51.880;-0.518;2023-04-03T03:25:47;2.65;;;0.82;;
39434;SDS011;66825;51.880;-0.518;2023-04-03T03:28:14;1.35;;;0.90;;
39434;SDS011;66825;51.880;-0.518;2023-04-03T03:30:40;0.80;;;0.60;;
39434;SDS011;66825;51.880;-0.518;2023-04-03T03:33:05;1.20;;;0.70;;
39434;SDS011;66825;51.880;-0.518;2023-04-03T03:35:32;1.23;;;0.70;;
39434;SDS011;66825;51.880;-0.518;2023-04-03T03:37:57;1.17;;;0.75;;
39434;SDS011;66825;51.880;-0.518;2023-04-03T03:40:23;1.30;;;0.80;;
39434;SDS011;66825;51.880;-0.518;2023-04-03T03:42:49;0.90;;;0.70;;
39434;SDS011;66825;51.880;-0.518;2023-04-03T03:45:14;1.25;;;0.90;;
39434;SDS011;66825;51.880;-0.518;2023-04-03T03:47:40;1.33;;;0.90;;
39434;SDS011;66825;51.880;-0.518;2023-04-03T03:50:06;1.23;;;0.80;;
39434;SDS011;66825;51.880;-0.518;2023-04-03T03:52:32;1.17;;;0.80;;
39434;SDS011;66825;51.880;-0.518;2023-04-03T03:54:57;1.35;;;0.80;;
39434;SDS011;66825;51.880;-0.518;2023-04-03T03:57:22;1.73;;;0.93;;
39434;SDS011;66825;51.880;-0.518;2023-04-03T03:59:48;1.38;;;0.70;;
39434;SDS011;66825;51.880;-0.518;2023-04-03T04:02:14;1.27;;;0.80;;
39434;SDS011;66825;51.880;-0.518;2023-04-03T04:04:40;1.23;;;0.80;;
39434;SDS011;66825;51.880;-0.518;2023-04-03T04:07:05;1.02;;;0.75;;
39434;SDS011;66825;51.880;-0.518;2023-04-03T04:09:31;1.58;;;0.90;;
39434;SDS011;66825;51.880;-0.518;2023-04-03T04:11:56;1.30;;;0.80;;
39434;SDS011;66825;51.880;-0.518;2023-04-03T04:14:22;1.52;;;0.90;;
39434;SDS011;66825;51.880;-0.518;2023-04-03T04:16:48;1.35;;;0.73;;
39434;SDS011;66825;51.880;-0.518;2023-04-03T04:19:13;1.27;;;0.70;;
39434;SDS011;66825;51.880;-0.518;2023-04-03T04:21:40;1.27;;;0.80;;
39434;SDS011;66825;51.880;-0.518;2023-04-03T04:24:06;1.15;;;0.75;;
39434;SDS011;66825;51.880;-0.518;2023-04-03T04:26:32;1.52;;;0.90;;
39434;SDS011;66825;51.880;-0.518;2023-04-03T04:28:58;1.45;;;0.90;;
39434;SDS011;66825;51.880;-0.518;2023-04-03T04:31:23;1.15;;;0.82;;
39434;SDS011;66825;51.880;-0.518;2023-04-03T04:33:49;2.03;;;0.75;;
39434;SDS011;66825;51.880;-0.518;2023-04-03T04:36:14;1.00;;;0.75;;
39434;SDS011;66825;51.880;-0.518;2023-04-03T04:38:40;1.25;;;0.80;;
39434;SDS011;66825;51.880;-0.518;2023-04-03T04:41:06;1.63;;;0.80;;
39434;SDS011;66825;51.880;-0.518;2023-04-03T04:43:32;2.15;;;0.82;;
39434;SDS011;66825;51.880;-0.518;2023-04-03T04:46:16;1.95;;;0.93;;
39434;SDS011;66825;51.880;-0.518;2023-04-03T04:48:42;0.93;;;0.60;;
39434;SDS011;66825;51.880;-0.518;2023-04-03T04:51:09;1.17;;;0.85;;
39434;SDS011;66825;51.880;-0.518;2023-04-03T04:53:35;1.88;;;1.00;;
39434;SDS011;66825;51.880;-0.518;2023-04-03T04:56:01;1.15;;;0.80;;
39434;SDS011;66825;51.880;-0.518;2023-04-03T04:58:27;1.00;;;0.75;;
39434;SDS011;66825;51.880;-0.518;2023-04-03T05:01:26;1.58;;;0.88;;
39434;SDS011;66825;51.880;-0.518;2023-04-03T05:03:45;1.30;;;0.90;;
39434;SDS011;66825;51.880;-0.518;2023-04-03T05:06:11;1.52;;;0.80;;
39434;SDS011;66825;51.880;-0.518;2023-04-03T05:08:36;1.42;;;0.80;;
39434;SDS011;66825;51.880;-0.518;2023-04-03T05:11:01;1.45;;;0.90;;
39434;SDS011;66825;51.880;-0.518;2023-04-03T05:13:27;2.08;;;1.00;;
39434;SDS011;66825;51.880;-0.518;2023-04-03T05:15:52;1.30;;;0.90;;
39434;SDS011;66825;51.880;-0.518;2023-04-03T05:18:18;1.20;;;0.80;;
39434;SDS011;66825;51.880;-0.518;2023-04-03T05:20:43;1.85;;;0.88;;
39434;SDS011;66825;51.880;-0.518;2023-04-03T05:23:09;1.02;;;0.65;;
39434;SDS011;66825;51.880;-0.518;2023-04-03T05:25:39;1.20;;;0.73;;
39434;SDS011;66825;51.880;-0.518;2023-04-03T05:28:06;2.75;;;0.88;;
39434;SDS011;66825;51.880;-0.518;2023-04-03T05:30:32;1.10;;;0.90;;
39434;SDS011;66825;51.880;-0.518;2023-04-03T05:32:58;1.40;;;0.80;;
39434;SDS011;66825;51.880;-0.518;2023-04-03T05:35:24;1.13;;;0.80;;
39434;SDS011;66825;51.880;-0.518;2023-04-03T05:37:50;1.80;;;0.90;;
39434;SDS011;66825;51.880;-0.518;2023-04-03T05:40:16;1.48;;;0.80;;
39434;SDS011;66825;51.880;-0.518;2023-04-03T05:42:41;1.13;;;0.80;;
39434;SDS011;66825;51.880;-0.518;2023-04-03T05:45:07;1.70;;;0.90;;
39434;SDS011;66825;51.880;-0.518;2023-04-03T05:47:33;1.13;;;0.70;;
39434;SDS011;66825;51.880;-0.518;2023-04-03T05:49:59;1.25;;;0.70;;
39434;SDS011;66825;51.880;-0.518;2023-04-03T05:52:32;1.50;;;0.85;;
39434;SDS011;66825;51.880;-0.518;2023-04-03T05:55:00;1.40;;;0.80;;
39434;SDS011;66825;51.880;-0.518;2023-04-03T05:57:26;0.95;;;0.70;;
39434;SDS011;66825;51.880;-0.518;2023-04-03T05:59:51;1.20;;;0.80;;
39434;SDS011;66825;51.880;-0.518;2023-04-03T06:02:18;2.10;;;0.98;;
39434;SDS011;66825;51.880;-0.518;2023-04-03T06:04:45;1.35;;;0.90;;
39434;SDS011;66825;51.880;-0.518;2023-04-03T06:07:16;1.70;;;0.73;;
39434;SDS011;66825;51.880;-0.518;2023-04-03T06:09:43;1.65;;;1.00;;
39434;SDS011;66825;51.880;-0.518;2023-04-03T06:12:09;1.60;;;0.82;;
39434;SDS011;66825;51.880;-0.518;2023-04-03T06:14:35;1.05;;;0.70;;
39434;SDS011;66825;51.880;-0.518;2023-04-03T06:17:01;1.13;;;0.80;;
39434;SDS011;66825;51.880;-0.518;2023-04-03T06:19:27;1.80;;;0.88;;
39434;SDS011;66825;51.880;-0.518;2023-04-03T06:21:53;1.10;;;0.82;;
39434;SDS011;66825;51.880;-0.518;2023-04-03T06:24:18;1.25;;;0.82;;
39434;SDS011;66825;51.880;-0.518;2023-04-03T06:26:47;1.55;;;0.82;;
39434;SDS011;66825;51.880;-0.518;2023-04-03T06:29:12;1.17;;;0.77;;
39434;SDS011;66825;51.880;-0.518;2023-04-03T06:31:38;1.92;;;0.90;;
39434;SDS011;66825;51.880;-0.518;2023-04-03T06:34:03;1.27;;;0.90;;
39434;SDS011;66825;51.880;-0.518;2023-04-03T06:36:30;1.48;;;0.80;;
39434;SDS011;66825;51.880;-0.518;2023-04-03T06:38:56;1.67;;;0.80;;
39434;SDS011;66825;51.880;-0.518;2023-04-03T06:41:22;1.30;;;0.90;;
39434;SDS011;66825;51.880;-0.518;2023-04-03T06:43:47;1.27;;;0.82;;
39434;SDS011;66825;51.880;-0.518;2023-04-03T06:46:14;1.50;;;0.88;;
39434;SDS011;66825;51.880;-0.518;2023-04-03T06:48:44;1.20;;;0.80;;
39434;SDS011;66825;51.880;-0.518;2023-04-03T06:51:13;1.08;;;0.75;;
39434;SDS011;66825;51.880;-0.518;2023-04-03T06:53:42;1.65;;;1.08;;
39434;SDS011;66825;51.880;-0.518;2023-04-03T06:56:08;1.73;;;0.88;;
39434;SDS011;66825;51.880;-0.518;2023-04-03T06:58:33;1.50;;;0.88;;
39434;SDS011;66825;51.880;-0.518;2023-04-03T07:00:59;1.58;;;0.90;;
39434;SDS011;66825;51.880;-0.518;2023-04-03T07:03:25;0.90;;;0.75;;
39434;SDS011;66825;51.880;-0.518;2023-04-03T07:05:50;1.27;;;0.88;;
39434;SDS011;66825;51.880;-0.518;2023-04-03T07:08:16;1.42;;;0.95;;
39434;SDS011;66825;51.880;-0.518;2023-04-03T07:10:41;2.20;;;0.95;;
39434;SDS011;66825;51.880;-0.518;2023-04-03T07:13:07;1.90;;;0.98;;
39434;SDS011;66825;51.880;-0.518;2023-04-03T07:15:32;1.88;;;0.90;;
39434;SDS011;66825;51.880;-0.518;2023-04-03T07:17:58;1.48;;;0.73;;
39434;SDS011;66825;51.880;-0.518;2023-04-03T07:20:24;1.67;;;0.90;;
39434;SDS011;66825;51.880;-0.518;2023-04-03T07:22:49;1.73;;;0.90;;
39434;SDS011;66825;51.880;-0.518;2023-04-03T07:25:15;1.55;;;0.80;;
39434;SDS011;66825;51.880;-0.518;2023-04-03T07:27:41;1.27;;;0.82;;
39434;SDS011;66825;51.880;-0.518;2023-04-03T07:30:06;2.40;;;0.70;;
39434;SDS011;66825;51.880;-0.518;2023-04-03T07:32:32;2.03;;;1.00;;
39434;SDS011;66825;51.880;-0.518;2023-04-03T07:34:58;1.50;;;0.90;;
39434;SDS011;66825;51.880;-0.518;2023-04-03T07:37:23;1.98;;;1.08;;
39434;SDS011;66825;51.880;-0.518;2023-04-03T07:39:49;2.88;;;0.98;;
39434;SDS011;66825;51.880;-0.518;2023-04-03T07:42:14;1.38;;;0.80;;
39434;SDS011;66825;51.880;-0.518;2023-04-03T07:44:40;1.88;;;1.13;;
39434;SDS011;66825;51.880;-0.518;2023-04-03T07:47:06;1.90;;;1.10;;
39434;SDS011;66825;51.880;-0.518;2023-04-03T07:49:31;1.95;;;1.00;;
39434;SDS011;66825;51.880;-0.518;2023-04-03T07:51:58;1.73;;;0.88;;
39434;SDS011;66825;51.880;-0.518;2023-04-03T07:54:23;1.45;;;0.90;;
39434;SDS011;66825;51.880;-0.518;2023-04-03T07:56:49;2.88;;;1.08;;
39434;SDS011;66825;51.880;-0.518;2023-04-03T07:59:14;3.05;;;0.85;;
39434;SDS011;66825;51.880;-0.518;2023-04-03T08:01:40;2.58;;;0.90;;
39434;SDS011;66825;51.880;-0.518;2023-04-03T08:04:05;2.75;;;0.98;;
39434;SDS011;66825;51.880;-0.518;2023-04-03T08:06:31;1.83;;;0.90;;
39434;SDS011;66825;51.880;-0.518;2023-04-03T08:09:00;2.20;;;1.20;;
39434;SDS011;66825;51.880;-0.518;2023-04-03T08:11:25;2.88;;;0.90;;
39434;SDS011;66825;51.880;-0.518;2023-04-03T08:13:52;2.53;;;0.95;;
39434;SDS011;66825;51.880;-0.518;2023-04-03T08:16:18;2.47;;;1.10;;
39434;SDS011;66825;51.880;-0.518;2023-04-03T08:18:47;3.08;;;1.00;;
39434;SDS011;66825;51.880;-0.518;2023-04-03T08:21:12;1.63;;;0.90;;
39434;SDS011;66825;51.880;-0.518;2023-04-03T08:23:38;1.95;;;0.90;;
39434;SDS011;66825;51.880;-0.518;2023-04-03T08:26:11;3.55;;;1.23;;
39434;SDS011;66825;51.880;-0.518;2023-04-03T08:28:39;1.65;;;1.00;;
39434;SDS011;66825;51.880;-0.518;2023-04-03T08:31:09;1.67;;;0.82;;
39434;SDS011;66825;51.880;-0.518;2023-04-03T08:33:37;2.95;;;1.00;;
39434;SDS011;66825;51.880;-0.518;2023-04-03T08:36:04;1.95;;;0.80;;
39434;SDS011;66825;51.880;-0.518;2023-04-03T08:38:31;1.83;;;0.90;;
39434;SDS011;66825;51.880;-0.518;2023-04-03T08:41:02;4.40;;;1.20;;
39434;SDS011;66825;51.880;-0.518;2023-04-03T08:43:40;5.40;;;1.40;;
39434;SDS011;66825;51.880;-0.518;2023-04-03T08:46:13;3.63;;;1.63;;
39434;SDS011;66825;51.880;-0.518;2023-04-03T08:48:42;7.37;;;1.57;;
39434;SDS011;66825;51.880;-0.518;2023-04-03T08:51:19;4.25;;;1.42;;
39434;SDS011;66825;51.880;-0.518;2023-04-03T08:53:55;6.35;;;1.60;;
39434;SDS011;66825;51.880;-0.518;2023-04-03T08:56:25;7.68;;;2.25;;
39434;SDS011;66825;51.880;-0.518;2023-04-03T08:59:03;8.25;;;2.08;;
39434;SDS011;66825;51.880;-0.518;2023-04-03T09:01:43;6.45;;;1.70;;
39434;SDS011;66825;51.880;-0.518;2023-04-03T09:04:13;5.50;;;1.60;;
39434;SDS011;66825;51.880;-0.518;2023-04-03T09:06:42;4.60;;;1.70;;
39434;SDS011;66825;51.880;-0.518;2023-04-03T09:20:02;6.70;;;1.23;;
39434;SDS011;66825;51.880;-0.518;2023-04-03T09:22:33;3.53;;;1.13;;
39434;SDS011;66825;51.880;-0.518;2023-04-03T09:27:39;3.90;;;1.70;;
39434;SDS011;66825;51.880;-0.518;2023-04-03T09:30:04;5.88;;;1.67;;
39434;SDS011;66825;51.880;-0.518;2023-04-03T09:32:34;5.80;;;1.70;;
39434;SDS011;66825;51.880;-0.518;2023-04-03T09:37:45;6.30;;;1.60;;
39434;SDS011;66825;51.880;-0.518;2023-04-03T09:42:51;6.80;;;2.30;;
39434;SDS011;66825;51.880;-0.518;2023-04-03T09:45:28;6.97;;;2.00;;
39434;SDS011;66825;51.880;-0.518;2023-04-03T09:50:32;10.57;;;2.50;;
39434;SDS011;66825;51.880;-0.518;2023-04-03T09:52:58;9.98;;;2.28;;
39434;SDS011;66825;51.880;-0.518;2023-04-03T09:55:24;4.82;;;1.60;;
39434;SDS011;66825;51.880;-0.518;2023-04-03T09:58:04;7.40;;;1.80;;
39434;SDS011;66825;51.880;-0.518;2023-04-03T10:00:37;4.07;;;1.50;;
39434;SDS011;66825;51.880;-0.518;2023-04-03T10:03:05;5.82;;;2.00;;
39434;SDS011;66825;51.880;-0.518;2023-04-03T10:05:46;6.90;;;2.10;;
39434;SDS011;66825;51.880;-0.518;2023-04-03T10:10:40;4.90;;;1.70;;
39434;SDS011;66825;51.880;-0.518;2023-04-03T10:13:11;4.45;;;1.50;;
39434;SDS011;66825;51.880;-0.518;2023-04-03T10:15:44;4.75;;;1.65;;
39434;SDS011;66825;51.880;-0.518;2023-04-03T10:24:44;5.55;;;1.60;;
39434;SDS011;66825;51.880;-0.518;2023-04-03T10:26:50;7.22;;;2.10;;
39434;SDS011;66825;51.880;-0.518;2023-04-03T10:34:45;8.48;;;2.22;;
39434;SDS011;66825;51.880;-0.518;2023-04-03T10:37:20;4.50;;;2.08;;
39434;SDS011;66825;51.880;-0.518;2023-04-03T10:40:05;8.52;;;2.15;;
39434;SDS011;66825;51.880;-0.518;2023-04-03T10:45:21;9.50;;;2.40;;
39434;SDS011;66825;51.880;-0.518;2023-04-03T10:47:55;8.15;;;2.50;;
39434;SDS011;66825;51.880;-0.518;2023-04-03T10:50:31;8.55;;;2.20;;
39434;SDS011;66825;51.880;-0.518;2023-04-03T10:53:17;11.07;;;2.70;;
39434;SDS011;66825;51.880;-0.518;2023-04-03T10:56:07;16.35;;;2.58;;
39434;SDS011;66825;51.880;-0.518;2023-04-03T11:01:13;13.07;;;3.10;;
39434;SDS011;66825;51.880;-0.518;2023-04-03T11:03:45;12.80;;;3.45;;
39434;SDS011;66825;51.880;-0.518;2023-04-03T11:06:22;14.35;;;3.17;;
39434;SDS011;66825;51.880;-0.518;2023-04-03T11:11:43;10.25;;;2.35;;
39434;SDS011;66825;51.880;-0.518;2023-04-03T11:20:03;9.48;;;2.42;;
39434;SDS011;66825;51.880;-0.518;2023-04-03T11:22:53;10.23;;;2.45;;
39434;SDS011;66825;51.880;-0.518;2023-04-03T11:25:25;13.25;;;2.40;;
39434;SDS011;66825;51.880;-0.518;2023-04-03T11:27:57;8.88;;;2.20;;
39434;SDS011;66825;51.880;-0.518;2023-04-03T11:36:24;10.27;;;2.92;;
39434;SDS011;66825;51.880;-0.518;2023-04-03T11:38:54;9.45;;;3.00;;
39434;SDS011;66825;51.880;-0.518;2023-04-03T11:41:29;10.52;;;2.50;;
39434;SDS011;66825;51.880;-0.518;2023-04-03T11:44:01;8.57;;;2.53;;
39434;SDS011;66825;51.880;-0.518;2023-04-03T11:52:55;10.32;;;2.13;;
39434;SDS011;66825;51.880;-0.518;2023-04-03T11:57:46;6.55;;;2.25;;
39434;SDS011;66825;51.880;-0.518;2023-04-03T12:16:05;6.80;;;2.10;;
39434;SDS011;66825;51.880;-0.518;2023-04-03T12:26:46;18.33;;;3.30;;
39434;SDS011;66825;51.880;-0.518;2023-04-03T12:42:40;6.43;;;1.73;;
39434;SDS011;66825;51.880;-0.518;2023-04-03T12:45:24;11.27;;;2.28;;
39434;SDS011;66825;51.880;-0.518;2023-04-03T12:47:51;8.65;;;1.98;;
39434;SDS011;66825;51.880;-0.518;2023-04-03T12:50:27;9.88;;;2.70;;
39434;SDS011;66825;51.880;-0.518;2023-04-03T12:55:32;7.93;;;2.22;;
39434;SDS011;66825;51.880;-0.518;2023-04-03T12:58:12;5.93;;;1.70;;
39434;SDS011;66825;51.880;-0.518;2023-04-03T13:01:03;8.02;;;1.73;;
39434;SDS011;66825;51.880;-0.518;2023-04-03T13:03:34;9.88;;;1.80;;
39434;SDS011;66825;51.880;-0.518;2023-04-03T13:06:04;11.88;;;1.80;;
39434;SDS011;66825;51.880;-0.518;2023-04-03T13:08:30;6.00;;;1.63;;
39434;SDS011;66825;51.880;-0.518;2023-04-03T13:11:08;8.00;;;1.60;;
39434;SDS011;66825;51.880;-0.518;2023-04-03T13:13:36;7.25;;;1.70;;
39434;SDS011;66825;51.880;-0.518;2023-04-03T13:16:10;5.35;;;1.58;;
39434;SDS011;66825;51.880;-0.518;2023-04-03T13:18:36;7.78;;;1.65;;
39434;SDS011;66825;51.880;-0.518;2023-04-03T13:21:07;7.60;;;2.00;;
39434;SDS011;66825;51.880;-0.518;2023-04-03T13:23:38;6.22;;;2.00;;
39434;SDS011;66825;51.880;-0.518;2023-04-03T13:26:07;12.65;;;2.80;;
39434;SDS011;66825;51.880;-0.518;2023-04-03T13:28:34;13.77;;;2.72;;
39434;SDS011;66825;51.880;-0.518;2023-04-03T13:31:08;10.95;;;2.17;;
39434;SDS011;66825;51.880;-0.518;2023-04-03T13:33:57;10.30;;;2.60;;
39434;SDS011;66825;51.880;-0.518;2023-04-03T13:36:35;9.85;;;2.58;;
39434;SDS011;66825;51.880;-0.518;2023-04-03T13:41:50;11.38;;;2.78;;
39434;SDS011;66825;51.880;-0.518;2023-04-03T13:52:27;9.48;;;2.20;;
39434;SDS011;66825;51.880;-0.518;2023-04-03T13:55:17;6.95;;;2.10;;
39434;SDS011;66825;51.880;-0.518;2023-04-03T13:57:50;4.82;;;1.67;;
39434;SDS011;66825;51.880;-0.518;2023-04-03T14:00:33;6.15;;;1.98;;
39434;SDS011;66825;51.880;-0.518;2023-04-03T14:03:11;7.40;;;2.53;;
39434;SDS011;66825;51.880;-0.518;2023-04-03T14:05:57;9.80;;;2.10;;
39434;SDS011;66825;51.880;-0.518;2023-04-03T14:08:23;6.78;;;1.95;;
39434;SDS011;66825;51.880;-0.518;2023-04-03T14:10:48;11.80;;;2.90;;
39434;SDS011;66825;51.880;-0.518;2023-04-03T14:13:17;7.00;;;2.42;;
39434;SDS011;66825;51.880;-0.518;2023-04-03T14:15:45;7.75;;;2.22;;
39434;SDS011;66825;51.880;-0.518;2023-04-03T14:18:14;7.97;;;2.30;;
39434;SDS011;66825;51.880;-0.518;2023-04-03T14:20:42;8.55;;;1.98;;
39434;SDS011;66825;51.880;-0.518;2023-04-03T14:23:08;5.75;;;2.35;;
39434;SDS011;66825;51.880;-0.518;2023-04-03T14:25:34;8.32;;;2.20;;
39434;SDS011;66825;51.880;-0.518;2023-04-03T14:28:00;5.75;;;1.88;;
39434;SDS011;66825;51.880;-0.518;2023-04-03T14:30:28;7.15;;;2.00;;
39434;SDS011;66825;51.880;-0.518;2023-04-03T14:32:56;5.75;;;2.08;;
39434;SDS011;66825;51.880;-0.518;2023-04-03T14:35:22;6.50;;;2.03;;
39434;SDS011;66825;51.880;-0.518;2023-04-03T14:37:48;7.75;;;1.63;;
39434;SDS011;66825;51.880;-0.518;2023-04-03T14:40:19;7.13;;;2.03;;
39434;SDS011;66825;51.880;-0.518;2023-04-03T14:42:50;5.43;;;1.60;;
39434;SDS011;66825;51.880;-0.518;2023-04-03T14:45:16;6.53;;;1.90;;
39434;SDS011;66825;51.880;-0.518;2023-04-03T14:47:53;9.43;;;2.55;;
39434;SDS011;66825;51.880;-0.518;2023-04-03T14:50:24;7.93;;;2.35;;
39434;SDS011;66825;51.880;-0.518;2023-04-03T14:52:53;7.85;;;2.20;;
39434;SDS011;66825;51.880;-0.518;2023-04-03T14:55:21;8.30;;;1.80;;
39434;SDS011;66825;51.880;-0.518;2023-04-03T14:57:48;9.00;;;1.67;;
39434;SDS011;66825;51.880;-0.518;2023-04-03T15:00:15;7.15;;;1.88;;
39434;SDS011;66825;51.880;-0.518;2023-04-03T15:02:43;5.63;;;1.40;;
39434;SDS011;66825;51.880;-0.518;2023-04-03T15:05:09;6.95;;;1.80;;
39434;SDS011;66825;51.880;-0.518;2023-04-03T15:07:39;3.58;;;1.25;;
39434;SDS011;66825;51.880;-0.518;2023-04-03T15:12:42;4.93;;;1.45;;
39434;SDS011;66825;51.880;-0.518;2023-04-03T15:15:08;4.90;;;1.60;;
39434;SDS011;66825;51.880;-0.518;2023-04-03T15:17:34;5.63;;;1.80;;
39434;SDS011;66825;51.880;-0.518;2023-04-03T15:20:01;5.05;;;1.95;;
39434;SDS011;66825;51.880;-0.518;2023-04-03T15:22:27;6.90;;;1.85;;
39434;SDS011;66825;51.880;-0.518;2023-04-03T15:24:53;4.32;;;1.35;;
39434;SDS011;66825;51.880;-0.518;2023-04-03T15:27:18;6.07;;;1.70;;
39434;SDS011;66825;51.880;-0.518;2023-04-03T15:29:44;8.07;;;1.70;;
39434;SDS011;66825;51.880;-0.518;2023-04-03T15:32:10;7.75;;;1.90;;
39434;SDS011;66825;51.880;-0.518;2023-04-03T15:34:37;8.60;;;2.20;;
39434;SDS011;66825;51.880;-0.518;2023-04-03T15:37:02;7.13;;;1.85;;
39434;SDS011;66825;51.880;-0.518;2023-04-03T15:39:28;6.72;;;1.98;;
39434;SDS011;66825;51.880;-0.518;2023-04-03T15:41:54;7.93;;;1.90;;
39434;SDS011;66825;51.880;-0.518;2023-04-03T15:44:20;5.13;;;1.48;;
39434;SDS011;66825;51.880;-0.518;2023-04-03T15:46:47;6.00;;;1.80;;
39434;SDS011;66825;51.880;-0.518;2023-04-03T15:49:17;7.28;;;1.88;;
39434;SDS011;66825;51.880;-0.518;2023-04-03T15:51:44;7.20;;;1.83;;
39434;SDS011;66825;51.880;-0.518;2023-04-03T15:54:09;6.45;;;1.90;;
39434;SDS011;66825;51.880;-0.518;2023-04-03T15:56:35;7.68;;;2.22;;
39434;SDS011;66825;51.880;-0.518;2023-04-03T15:59:00;7.25;;;1.80;;
39434;SDS011;66825;51.880;-0.518;2023-04-03T16:01:26;3.92;;;1.50;;
39434;SDS011;66825;51.880;-0.518;2023-04-03T16:03:51;5.07;;;1.60;;
39434;SDS011;66825;51.880;-0.518;2023-04-03T16:06:17;3.97;;;1.40;;
39434;SDS011;66825;51.880;-0.518;2023-04-03T16:08:44;5.20;;;1.83;;
39434;SDS011;66825;51.880;-0.518;2023-04-03T16:11:11;3.70;;;1.60;;
39434;SDS011;66825;51.880;-0.518;2023-04-03T16:13:37;4.95;;;1.90;;
39434;SDS011;66825;51.880;-0.518;2023-04-03T16:16:02;6.72;;;1.80;;
39434;SDS011;66825;51.880;-0.518;2023-04-03T16:18:29;4.25;;;1.65;;
39434;SDS011;66825;51.880;-0.518;2023-04-03T16:20:55;4.18;;;1.73;;
39434;SDS011;66825;51.880;-0.518;2023-04-03T16:23:21;6.65;;;2.15;;
39434;SDS011;66825;51.880;-0.518;2023-04-03T16:25:48;5.88;;;1.75;;
39434;SDS011;66825;51.880;-0.518;2023-04-03T16:28:15;6.22;;;1.80;;
39434;SDS011;66825;51.880;-0.518;2023-04-03T16:30:42;3.50;;;1.73;;
39434;SDS011;66825;51.880;-0.518;2023-04-03T16:33:09;4.32;;;1.80;;
39434;SDS011;66825;51.880;-0.518;2023-04-03T16:35:36;4.78;;;1.83;;
39434;SDS011;66825;51.880;-0.518;2023-04-03T16:38:01;4.38;;;1.42;;
39434;SDS011;66825;51.880;-0.518;2023-04-03T16:40:27;3.72;;;1.55;;
39434;SDS011;66825;51.880;-0.518;2023-04-03T16:42:53;4.97;;;1.50;;